sensor_id;sensor_type;location;lat;lon;timestamp;pressure;altitude;pressure_sealevel;temperature;humidity
9853;BME280;4965;43.238;27.864;2022-08-25T00:01:35;99764.25;;;21.96;100.00
9853;BME280;4965;43.238;27.864;2022-08-25T00:04:06;99763.63;;;21.94;100.00
9853;BME280;4965;43.238;27.864;2022-08-25T00:06:35;99765.22;;;22.08;100.00
9853;BME280;4965;43.238;27.864;2022-08-25T00:09:02;99761.47;;;22.15;100.00
9853;BME280;4965;43.238;27.864;2022-08-25T00:11:32;99742.38;;;22.17;100.00
9853;BME280;4965;43.238;27.864;2022-08-25T00:14:02;99746.28;;;22.21;100.00
9853;BME280;4965;43.238;27.864;2022-08-25T00:16:30;99750.66;;;22.22;100.00
9853;BME280;4965;43.238;27.864;2022-08-25T00:19:00;99742.72;;;22.33;100.00
9853;BME280;4965;43.238;27.864;2022-08-25T00:21:29;99739.16;;;22.40;100.00
9853;BME280;4965;43.238;27.864;2022-08-25T00:23:57;99717.63;;;22.40;100.00
9853;BME280;4965;43.238;27.864;2022-08-25T00:26:26;99716.09;;;22.50;100.00
9853;BME280;4965;43.238;27.864;2022-08-25T00:28:54;99697.81;;;22.52;100.00
9853;BME280;4965;43.238;27.864;2022-08-25T00:31:21;99688.88;;;22.58;100.00
9853;BME280;4965;43.238;27.864;2022-08-25T00:33:50;99680.72;;;22.40;100.00
9853;BME280;4965;43.238;27.864;2022-08-25T00:36:18;99682.00;;;22.38;100.00
9853;BME280;4965;43.238;27.864;2022-08-25T00:38:47;99673.25;;;22.42;100.00
9853;BME280;4965;43.238;27.864;2022-08-25T00:41:17;99673.84;;;22.44;100.00
9853;BME280;4965;43.238;27.864;2022-08-25T00:43:47;99669.94;;;22.40;100.00
9853;BME280;4965;43.238;27.864;2022-08-25T00:46:18;99670.84;;;22.34;100.00
9853;BME280;4965;43.238;27.864;2022-08-25T00:48:50;99679.38;;;22.24;100.00
9853;BME280;4965;43.238;27.864;2022-08-25T00:51:28;99680.47;;;22.17;100.00
9853;BME280;4965;43.238;27.864;2022-08-25T00:53:57;99684.22;;;22.16;100.00
9853;BME280;4965;43.238;27.864;2022-08-25T00:56:24;99682.13;;;22.18;100.00
9853;BME280;4965;43.238;27.864;2022-08-25T00:58:52;99671.31;;;22.24;100.00
9853;BME280;4965;43.238;27.864;2022-08-25T01:01:19;99674.66;;;22.20;100.00
9853;BME280;4965;43.238;27.864;2022-08-25T01:03:46;99674.88;;;22.18;100.00
9853;BME280;4965;43.238;27.864;2022-08-25T01:06:13;99674.47;;;22.15;100.00
9853;BME280;4965;43.238;27.864;2022-08-25T01:08:41;99659.56;;;22.19;100.00
9853;BME280;4965;43.238;27.864;2022-08-25T01:11:10;99657.69;;;22.19;100.00
9853;BME280;4965;43.238;27.864;2022-08-25T01:13:40;99661.16;;;22.26;100.00
9853;BME280;4965;43.238;27.864;2022-08-25T01:16:09;99651.91;;;22.16;100.00
9853;BME280;4965;43.238;27.864;2022-08-25T01:18:46;99657.31;;;22.16;100.00
9853;BME280;4965;43.238;27.864;2022-08-25T01:21:16;99649.25;;;22.09;100.00
9853;BME280;4965;43.238;27.864;2022-08-25T01:23:44;99641.16;;;22.16;100.00
9853;BME280;4965;43.238;27.864;2022-08-25T01:26:14;99625.00;;;22.16;100.00
9853;BME280;4965;43.238;27.864;2022-08-25T01:28:42;99619.00;;;22.14;100.00
9853;BME280;4965;43.238;27.864;2022-08-25T01:31:24;99626.47;;;22.12;100.00
9853;BME280;4965;43.238;27.864;2022-08-25T01:33:51;99635.66;;;21.98;100.00
9853;BME280;4965;43.238;27.864;2022-08-25T01:36:20;99624.88;;;22.04;100.00
9853;BME280;4965;43.238;27.864;2022-08-25T01:38:48;99619.69;;;22.03;100.00
9853;BME280;4965;43.238;27.864;2022-08-25T01:41:16;99610.16;;;22.07;100.00
9853;BME280;4965;43.238;27.864;2022-08-25T01:43:46;99606.41;;;22.08;100.00
9853;BME280;4965;43.238;27.864;2022-08-25T01:46:13;99602.28;;;22.05;100.00
9853;BME280;4965;43.238;27.864;2022-08-25T01:48:40;99592.56;;;22.04;100.00
9853;BME280;4965;43.238;27.864;2022-08-25T01:51:07;99589.81;;;22.11;100.00
9853;BME280;4965;43.238;27.864;2022-08-25T01:53:35;99590.59;;;22.18;100.00
9853;BME280;4965;43.238;27.864;2022-08-25T01:56:09;99590.97;;;22.21;100.00
9853;BME280;4965;43.238;27.864;2022-08-25T01:58:39;99589.72;;;22.24;100.00
9853;BME280;4965;43.238;27.864;2022-08-25T02:01:08;99584.72;;;22.27;100.00
9853;BME280;4965;43.238;27.864;2022-08-25T02:03:37;99565.31;;;22.19;100.00
9853;BME280;4965;43.238;27.864;2022-08-25T02:06:05;99581.41;;;22.25;100.00
9853;BME280;4965;43.238;27.864;2022-08-25T02:08:32;99583.28;;;22.25;100.00
9853;BME280;4965;43.238;27.864;2022-08-25T02:11:00;99578.03;;;22.12;100.00
9853;BME280;4965;43.238;27.864;2022-08-25T02:13:27;99582.75;;;22.16;100.00
9853;BME280;4965;43.238;27.864;2022-08-25T02:15:56;99576.97;;;22.13;100.00
9853;BME280;4965;43.238;27.864;2022-08-25T02:18:24;99573.69;;;22.11;100.00
9853;BME280;4965;43.238;27.864;2022-08-25T02:20:51;99580.75;;;22.05;100.00
9853;BME280;4965;43.238;27.864;2022-08-25T02:23:18;99582.63;;;22.05;100.00
9853;BME280;4965;43.238;27.864;2022-08-25T02:25:45;99568.16;;;21.99;100.00
9853;BME280;4965;43.238;27.864;2022-08-25T02:28:14;99571.03;;;22.04;100.00
9853;BME280;4965;43.238;27.864;2022-08-25T02:30:41;99575.53;;;22.10;100.00
9853;BME280;4965;43.238;27.864;2022-08-25T02:33:09;99573.84;;;22.16;100.00
9853;BME280;4965;43.238;27.864;2022-08-25T02:35:37;99573.69;;;22.11;100.00
9853;BME280;4965;43.238;27.864;2022-08-25T02:38:04;99560.00;;;22.12;100.00
9853;BME280;4965;43.238;27.864;2022-08-25T02:40:32;99562.91;;;22.11;100.00
9853;BME280;4965;43.238;27.864;2022-08-25T02:42:59;99560.38;;;22.16;100.00
9853;BME280;4965;43.238;27.864;2022-08-25T02:45:28;99558.91;;;22.20;100.00
9853;BME280;4965;43.238;27.864;2022-08-25T02:47:55;99557.84;;;22.21;100.00
9853;BME280;4965;43.238;27.864;2022-08-25T02:50:22;99556.97;;;22.27;100.00
9853;BME280;4965;43.238;27.864;2022-08-25T02:52:49;99552.34;;;22.34;100.00
9853;BME280;4965;43.238;27.864;2022-08-25T02:55:16;99563.41;;;22.26;100.00
9853;BME280;4965;43.238;27.864;2022-08-25T02:57:44;99563.84;;;22.23;100.00
9853;BME280;4965;43.238;27.864;2022-08-25T03:00:12;99555.69;;;22.29;100.00
9853;BME280;4965;43.238;27.864;2022-08-25T03:02:41;99559.88;;;22.25;100.00
9853;BME280;4965;43.238;27.864;2022-08-25T03:05:10;99566.91;;;22.26;100.00
9853;BME280;4965;43.238;27.864;2022-08-25T03:07:37;99557.69;;;22.16;100.00
9853;BME280;4965;43.238;27.864;2022-08-25T03:10:06;99566.53;;;22.23;100.00
9853;BME280;4965;43.238;27.864;2022-08-25T03:12:33;99578.50;;;22.27;100.00
9853;BME280;4965;43.238;27.864;2022-08-25T03:15:00;99581.66;;;22.24;100.00
9853;BME280;4965;43.238;27.864;2022-08-25T03:17:27;99598.06;;;22.16;100.00
9853;BME280;4965;43.238;27.864;2022-08-25T03:19:55;99618.78;;;22.15;100.00
9853;BME280;4965;43.238;27.864;2022-08-25T03:22:22;99608.41;;;22.19;100.00
9853;BME280;4965;43.238;27.864;2022-08-25T03:24:49;99622.81;;;22.31;100.00
9853;BME280;4965;43.238;27.864;2022-08-25T03:27:16;99626.22;;;22.20;100.00
9853;BME280;4965;43.238;27.864;2022-08-25T03:29:42;99629.50;;;22.22;100.00
9853;BME280;4965;43.238;27.864;2022-08-25T03:32:10;99632.81;;;22.24;100.00
9853;BME280;4965;43.238;27.864;2022-08-25T03:34:36;99628.78;;;22.33;100.00
9853;BME280;4965;43.238;27.864;2022-08-25T03:37:05;99625.94;;;22.28;100.00
9853;BME280;4965;43.238;27.864;2022-08-25T03:39:33;99630.88;;;22.31;100.00
9853;BME280;4965;43.238;27.864;2022-08-25T03:42:02;99622.06;;;22.17;100.00
9853;BME280;4965;43.238;27.864;2022-08-25T03:44:29;99614.00;;;22.17;100.00
9853;BME280;4965;43.238;27.864;2022-08-25T03:46:57;99618.13;;;22.20;100.00
9853;BME280;4965;43.238;27.864;2022-08-25T03:49:24;99601.34;;;22.18;100.00
9853;BME280;4965;43.238;27.864;2022-08-25T03:51:52;99620.38;;;22.23;100.00
9853;BME280;4965;43.238;27.864;2022-08-25T03:54:22;99618.47;;;22.30;100.00
9853;BME280;4965;43.238;27.864;2022-08-25T03:56:50;99626.84;;;22.40;100.00
9853;BME280;4965;43.238;27.864;2022-08-25T03:59:17;99621.91;;;22.37;100.00
9853;BME280;4965;43.238;27.864;2022-08-25T04:01:45;99622.69;;;22.44;100.00
9853;BME280;4965;43.238;27.864;2022-08-25T04:04:14;99630.03;;;22.55;100.00
9853;BME280;4965;43.238;27.864;2022-08-25T04:06:42;99614.88;;;22.61;100.00
9853;BME280;4965;43.238;27.864;2022-08-25T04:09:09;99619.59;;;22.65;100.00
9853;BME280;4965;43.238;27.864;2022-08-25T04:11:38;99618.84;;;22.58;100.00
9853;BME280;4965;43.238;27.864;2022-08-25T04:14:05;99615.47;;;22.69;100.00
9853;BME280;4965;43.238;27.864;2022-08-25T04:16:33;99623.97;;;22.66;100.00
9853;BME280;4965;43.238;27.864;2022-08-25T04:19:04;99622.03;;;22.73;100.00
9853;BME280;4965;43.238;27.864;2022-08-25T04:21:32;99609.31;;;22.81;100.00
9853;BME280;4965;43.238;27.864;2022-08-25T04:23:59;99625.75;;;22.97;100.00
9853;BME280;4965;43.238;27.864;2022-08-25T04:26:29;99628.06;;;23.12;100.00
9853;BME280;4965;43.238;27.864;2022-08-25T04:29:00;99630.41;;;23.08;100.00
9853;BME280;4965;43.238;27.864;2022-08-25T04:31:28;99629.72;;;23.31;100.00
9853;BME280;4965;43.238;27.864;2022-08-25T04:33:56;99624.66;;;24.01;100.00
9853;BME280;4965;43.238;27.864;2022-08-25T04:36:23;99607.28;;;24.50;100.00
9853;BME280;4965;43.238;27.864;2022-08-25T04:38:50;99606.69;;;24.83;100.00
9853;BME280;4965;43.238;27.864;2022-08-25T04:41:19;99601.97;;;25.13;100.00
9853;BME280;4965;43.238;27.864;2022-08-25T04:43:46;99601.31;;;25.34;100.00
9853;BME280;4965;43.238;27.864;2022-08-25T04:46:17;99596.47;;;25.59;100.00
9853;BME280;4965;43.238;27.864;2022-08-25T04:48:45;99584.50;;;26.17;100.00
9853;BME280;4965;43.238;27.864;2022-08-25T04:51:14;99581.78;;;26.84;100.00
9853;BME280;4965;43.238;27.864;2022-08-25T04:53:41;99591.13;;;27.85;100.00
9853;BME280;4965;43.238;27.864;2022-08-25T04:56:10;99577.19;;;28.35;100.00
9853;BME280;4965;43.238;27.864;2022-08-25T04:58:39;99587.28;;;28.39;100.00
9853;BME280;4965;43.238;27.864;2022-08-25T05:01:08;99595.81;;;28.90;100.00
9853;BME280;4965;43.238;27.864;2022-08-25T05:03:37;99577.84;;;28.89;100.00
9853;BME280;4965;43.238;27.864;2022-08-25T05:06:04;99582.09;;;28.70;100.00
9853;BME280;4965;43.238;27.864;2022-08-25T05:08:32;99577.09;;;28.62;100.00
9853;BME280;4965;43.238;27.864;2022-08-25T05:11:04;99564.66;;;29.18;100.00
9853;BME280;4965;43.238;27.864;2022-08-25T05:13:31;99564.34;;;29.09;100.00
9853;BME280;4965;43.238;27.864;2022-08-25T05:15:59;99560.16;;;28.86;100.00
9853;BME280;4965;43.238;27.864;2022-08-25T05:18:28;99566.13;;;29.41;100.00
9853;BME280;4965;43.238;27.864;2022-08-25T05:21:00;99570.34;;;29.99;100.00
9853;BME280;4965;43.238;27.864;2022-08-25T05:23:28;99565.94;;;29.83;100.00
9853;BME280;4965;43.238;27.864;2022-08-25T05:25:59;99568.16;;;30.01;100.00
9853;BME280;4965;43.238;27.864;2022-08-25T05:28:27;99559.72;;;29.92;100.00
9853;BME280;4965;43.238;27.864;2022-08-25T05:30:57;99548.25;;;29.90;100.00
9853;BME280;4965;43.238;27.864;2022-08-25T05:33:24;99562.56;;;29.30;100.00
9853;BME280;4965;43.238;27.864;2022-08-25T05:35:51;99576.91;;;28.31;100.00
9853;BME280;4965;43.238;27.864;2022-08-25T05:38:20;99583.66;;;27.70;100.00
9853;BME280;4965;43.238;27.864;2022-08-25T05:40:47;99571.09;;;27.42;100.00
9853;BME280;4965;43.238;27.864;2022-08-25T05:43:17;99580.66;;;27.23;100.00
9853;BME280;4965;43.238;27.864;2022-08-25T05:45:44;99588.66;;;27.13;100.00
9853;BME280;4965;43.238;27.864;2022-08-25T05:48:12;99575.91;;;26.92;100.00
9853;BME280;4965;43.238;27.864;2022-08-25T05:50:39;99592.69;;;26.89;100.00
9853;BME280;4965;43.238;27.864;2022-08-25T05:53:05;99580.03;;;26.78;100.00
9853;BME280;4965;43.238;27.864;2022-08-25T05:55:34;99586.97;;;26.52;100.00
9853;BME280;4965;43.238;27.864;2022-08-25T05:58:01;99583.38;;;26.30;100.00
9853;BME280;4965;43.238;27.864;2022-08-25T06:00:28;99589.59;;;26.30;100.00
9853;BME280;4965;43.238;27.864;2022-08-25T06:02:55;99598.22;;;26.27;100.00
9853;BME280;4965;43.238;27.864;2022-08-25T06:05:21;99600.75;;;26.17;100.00
9853;BME280;4965;43.238;27.864;2022-08-25T06:07:50;99595.97;;;26.07;100.00
9853;BME280;4965;43.238;27.864;2022-08-25T06:10:18;99611.59;;;26.50;100.00
9853;BME280;4965;43.238;27.864;2022-08-25T06:12:47;99601.56;;;26.18;100.00
9853;BME280;4965;43.238;27.864;2022-08-25T06:15:16;99611.09;;;26.87;100.00
9853;BME280;4965;43.238;27.864;2022-08-25T06:17:44;99606.66;;;27.19;100.00
9853;BME280;4965;43.238;27.864;2022-08-25T06:20:14;99580.72;;;27.50;100.00
9853;BME280;4965;43.238;27.864;2022-08-25T06:22:42;99591.84;;;28.29;100.00
9853;BME280;4965;43.238;27.864;2022-08-25T06:25:10;99585.00;;;28.63;100.00
9853;BME280;4965;43.238;27.864;2022-08-25T06:27:37;99581.81;;;29.23;100.00
9853;BME280;4965;43.238;27.864;2022-08-25T06:30:08;99593.16;;;29.57;100.00
9853;BME280;4965;43.238;27.864;2022-08-25T06:32:37;99586.09;;;29.81;100.00
9853;BME280;4965;43.238;27.864;2022-08-25T06:35:07;99585.88;;;30.28;100.00
9853;BME280;4965;43.238;27.864;2022-08-25T06:37:35;99588.66;;;30.54;100.00
9853;BME280;4965;43.238;27.864;2022-08-25T06:40:04;99586.44;;;30.56;100.00
9853;BME280;4965;43.238;27.864;2022-08-25T06:42:32;99581.75;;;29.80;100.00
9853;BME280;4965;43.238;27.864;2022-08-25T06:44:59;99583.88;;;29.63;100.00
9853;BME280;4965;43.238;27.864;2022-08-25T06:47:27;99584.69;;;29.59;100.00
9853;BME280;4965;43.238;27.864;2022-08-25T06:49:54;99585.19;;;29.41;100.00
9853;BME280;4965;43.238;27.864;2022-08-25T06:52:21;99582.72;;;29.39;100.00
9853;BME280;4965;43.238;27.864;2022-08-25T06:54:48;99584.97;;;28.95;100.00
9853;BME280;4965;43.238;27.864;2022-08-25T06:57:15;99575.34;;;29.29;100.00
9853;BME280;4965;43.238;27.864;2022-08-25T06:59:42;99588.97;;;29.29;100.00
9853;BME280;4965;43.238;27.864;2022-08-25T07:02:09;99579.31;;;29.84;100.00
9853;BME280;4965;43.238;27.864;2022-08-25T07:04:37;99588.06;;;30.21;100.00
9853;BME280;4965;43.238;27.864;2022-08-25T07:07:04;99583.97;;;29.99;100.00
9853;BME280;4965;43.238;27.864;2022-08-25T07:36:59;99593.97;;;29.58;100.00
9853;BME280;4965;43.238;27.864;2022-08-25T07:39:29;99601.09;;;29.84;100.00
9853;BME280;4965;43.238;27.864;2022-08-25T07:41:57;99595.13;;;29.97;100.00
9853;BME280;4965;43.238;27.864;2022-08-25T07:44:24;99580.44;;;30.13;100.00
9853;BME280;4965;43.238;27.864;2022-08-25T07:46:52;99561.91;;;30.10;100.00
9853;BME280;4965;43.238;27.864;2022-08-25T07:49:21;99602.00;;;30.55;100.00
9853;BME280;4965;43.238;27.864;2022-08-25T07:51:48;99584.50;;;29.91;100.00
9853;BME280;4965;43.238;27.864;2022-08-25T07:54:16;99555.03;;;29.83;100.00
9853;BME280;4965;43.238;27.864;2022-08-25T07:56:44;99556.44;;;30.05;100.00
9853;BME280;4965;43.238;27.864;2022-08-25T07:59:11;99578.78;;;30.63;100.00
9853;BME280;4965;43.238;27.864;2022-08-25T08:01:38;99581.50;;;30.68;100.00
9853;BME280;4965;43.238;27.864;2022-08-25T08:04:05;99595.19;;;30.58;100.00
9853;BME280;4965;43.238;27.864;2022-08-25T08:06:33;99576.59;;;30.80;100.00
9853;BME280;4965;43.238;27.864;2022-08-25T08:09:00;99545.47;;;30.76;100.00
9853;BME280;4965;43.238;27.864;2022-08-25T08:11:30;99554.81;;;30.30;100.00
9853;BME280;4965;43.238;27.864;2022-08-25T08:14:00;99567.75;;;31.13;100.00
9853;BME280;4965;43.238;27.864;2022-08-25T08:16:31;99570.50;;;31.67;100.00
9853;BME280;4965;43.238;27.864;2022-08-25T08:19:04;99565.50;;;31.85;100.00
9853;BME280;4965;43.238;27.864;2022-08-25T08:21:33;99559.78;;;31.27;100.00
9853;BME280;4965;43.238;27.864;2022-08-25T08:24:02;99557.44;;;30.95;100.00
9853;BME280;4965;43.238;27.864;2022-08-25T08:26:30;99567.00;;;31.52;100.00
9853;BME280;4965;43.238;27.864;2022-08-25T08:28:58;99552.63;;;31.36;100.00
9853;BME280;4965;43.238;27.864;2022-08-25T08:31:25;99556.06;;;31.62;100.00
9853;BME280;4965;43.238;27.864;2022-08-25T08:33:54;99535.56;;;31.10;100.00
9853;BME280;4965;43.238;27.864;2022-08-25T08:36:23;99550.50;;;31.77;100.00
9853;BME280;4965;43.238;27.864;2022-08-25T08:38:50;99563.69;;;32.38;100.00
9853;BME280;4965;43.238;27.864;2022-08-25T08:44:37;99550.75;;;32.77;100.00
9853;BME280;4965;43.238;27.864;2022-08-25T08:47:10;99535.44;;;32.47;100.00
9853;BME280;4965;43.238;27.864;2022-08-25T08:49:49;99531.53;;;32.82;100.00
9853;BME280;4965;43.238;27.864;2022-08-25T08:52:22;99523.63;;;31.89;100.00
9853;BME280;4965;43.238;27.864;2022-08-25T08:54:58;99549.78;;;32.34;100.00
9853;BME280;4965;43.238;27.864;2022-08-25T08:57:28;99531.75;;;31.99;100.00
9853;BME280;4965;43.238;27.864;2022-08-25T09:00:03;99551.03;;;32.47;100.00
9853;BME280;4965;43.238;27.864;2022-08-25T09:02:51;99571.53;;;32.21;100.00
9853;BME280;4965;43.238;27.864;2022-08-25T09:05:24;99551.03;;;32.18;100.00
9853;BME280;4965;43.238;27.864;2022-08-25T09:07:56;99568.34;;;32.37;100.00
9853;BME280;4965;43.238;27.864;2022-08-25T09:10:25;99534.66;;;32.42;100.00
9853;BME280;4965;43.238;27.864;2022-08-25T09:12:59;99509.63;;;31.62;100.00
9853;BME280;4965;43.238;27.864;2022-08-25T09:15:42;99503.16;;;31.43;100.00
9853;BME280;4965;43.238;27.864;2022-08-25T09:18:38;99512.09;;;31.58;100.00
9853;BME280;4965;43.238;27.864;2022-08-25T09:21:12;99536.53;;;32.46;100.00
9853;BME280;4965;43.238;27.864;2022-08-25T09:23:59;99520.31;;;31.92;100.00
9853;BME280;4965;43.238;27.864;2022-08-25T09:26:33;99528.31;;;32.46;100.00
9853;BME280;4965;43.238;27.864;2022-08-25T09:29:07;99517.97;;;32.43;100.00
9853;BME280;4965;43.238;27.864;2022-08-25T09:31:37;99520.66;;;32.20;94.36
9853;BME280;4965;43.238;27.864;2022-08-25T09:34:06;99538.84;;;31.67;100.00
9853;BME280;4965;43.238;27.864;2022-08-25T09:36:50;99536.88;;;31.67;99.59
9853;BME280;4965;43.238;27.864;2022-08-25T09:39:20;99517.72;;;32.11;98.36
9853;BME280;4965;43.238;27.864;2022-08-25T09:41:50;99525.34;;;32.14;100.00
9853;BME280;4965;43.238;27.864;2022-08-25T09:44:20;99540.69;;;32.10;97.47
9853;BME280;4965;43.238;27.864;2022-08-25T09:47:02;99526.75;;;32.69;92.33
9853;BME280;4965;43.238;27.864;2022-08-25T09:49:34;99521.97;;;32.27;90.51
9853;BME280;4965;43.238;27.864;2022-08-25T09:52:28;99538.75;;;32.16;91.00
9853;BME280;4965;43.238;27.864;2022-08-25T09:55:00;99520.34;;;32.21;87.87
9853;BME280;4965;43.238;27.864;2022-08-25T09:57:31;99523.13;;;32.45;86.93
9853;BME280;4965;43.238;27.864;2022-08-25T10:00:11;99527.97;;;32.82;83.02
9853;BME280;4965;43.238;27.864;2022-08-25T10:02:43;99527.44;;;32.80;82.56
9853;BME280;4965;43.238;27.864;2022-08-25T10:05:19;99524.00;;;33.17;81.73
9853;BME280;4965;43.238;27.864;2022-08-25T10:07:51;99531.13;;;33.36;79.94
9853;BME280;4965;43.238;27.864;2022-08-25T10:10:23;99529.47;;;32.69;83.60
9853;BME280;4965;43.238;27.864;2022-08-25T10:12:51;99498.59;;;32.40;83.82
9853;BME280;4965;43.238;27.864;2022-08-25T10:15:21;99506.94;;;32.77;83.51
9853;BME280;4965;43.238;27.864;2022-08-25T10:17:50;99519.84;;;32.72;83.36
9853;BME280;4965;43.238;27.864;2022-08-25T10:20:20;99493.88;;;32.93;81.89
9853;BME280;4965;43.238;27.864;2022-08-25T10:22:48;99493.63;;;32.42;80.62
9853;BME280;4965;43.238;27.864;2022-08-25T10:25:19;99491.75;;;32.37;76.62
9853;BME280;4965;43.238;27.864;2022-08-25T10:27:54;99529.53;;;32.64;77.01
9853;BME280;4965;43.238;27.864;2022-08-25T10:30:30;99529.94;;;32.76;76.46
9853;BME280;4965;43.238;27.864;2022-08-25T10:33:13;99533.41;;;32.58;76.30
9853;BME280;4965;43.238;27.864;2022-08-25T10:35:55;99541.72;;;32.19;81.46
9853;BME280;4965;43.238;27.864;2022-08-25T10:38:32;99531.06;;;32.46;77.37
9853;BME280;4965;43.238;27.864;2022-08-25T10:41:09;99547.22;;;32.14;77.82
9853;BME280;4965;43.238;27.864;2022-08-25T10:43:45;99549.94;;;32.19;77.32
9853;BME280;4965;43.238;27.864;2022-08-25T10:46:19;99557.75;;;32.31;76.88
9853;BME280;4965;43.238;27.864;2022-08-25T10:48:57;99548.66;;;32.69;75.60
9853;BME280;4965;43.238;27.864;2022-08-25T10:51:53;99558.81;;;33.11;77.43
9853;BME280;4965;43.238;27.864;2022-08-25T10:54:35;99558.56;;;32.89;73.21
9853;BME280;4965;43.238;27.864;2022-08-25T10:57:11;99566.63;;;32.99;67.53
9853;BME280;4965;43.238;27.864;2022-08-25T10:59:50;99564.31;;;32.58;68.57
9853;BME280;4965;43.238;27.864;2022-08-25T11:02:49;99588.44;;;32.28;74.49
9853;BME280;4965;43.238;27.864;2022-08-25T11:05:27;99552.00;;;32.61;74.40
9853;BME280;4965;43.238;27.864;2022-08-25T11:07:58;99549.81;;;32.58;74.28
9853;BME280;4965;43.238;27.864;2022-08-25T11:10:37;99578.47;;;32.37;74.01
9853;BME280;4965;43.238;27.864;2022-08-25T11:13:10;99575.81;;;32.32;71.52
9853;BME280;4965;43.238;27.864;2022-08-25T11:15:46;99574.91;;;32.07;71.37
9853;BME280;4965;43.238;27.864;2022-08-25T11:18:16;99578.81;;;32.30;72.82
9853;BME280;4965;43.238;27.864;2022-08-25T11:20:50;99567.78;;;32.06;76.47
9853;BME280;4965;43.238;27.864;2022-08-25T11:23:22;99564.66;;;32.23;76.59
9853;BME280;4965;43.238;27.864;2022-08-25T11:25:52;99562.50;;;32.78;75.29
9853;BME280;4965;43.238;27.864;2022-08-25T11:28:25;99602.66;;;32.58;73.63
9853;BME280;4965;43.238;27.864;2022-08-25T11:30:58;99563.66;;;32.43;72.96
9853;BME280;4965;43.238;27.864;2022-08-25T11:33:28;99551.84;;;32.76;71.50
9853;BME280;4965;43.238;27.864;2022-08-25T11:36:00;99595.69;;;32.42;62.92
9853;BME280;4965;43.238;27.864;2022-08-25T11:38:38;99563.50;;;31.90;70.59
9853;BME280;4965;43.238;27.864;2022-08-25T11:41:19;99562.16;;;31.93;68.64
9853;BME280;4965;43.238;27.864;2022-08-25T11:44:20;99543.94;;;31.78;68.78
9853;BME280;4965;43.238;27.864;2022-08-25T11:47:08;99561.47;;;31.72;70.40
9853;BME280;4965;43.238;27.864;2022-08-25T11:49:50;99561.56;;;31.52;72.26
9853;BME280;4965;43.238;27.864;2022-08-25T11:52:51;99569.56;;;31.33;77.96
9853;BME280;4965;43.238;27.864;2022-08-25T11:55:25;99571.84;;;31.16;80.81
9853;BME280;4965;43.238;27.864;2022-08-25T11:58:27;99599.50;;;30.99;75.60
9853;BME280;4965;43.238;27.864;2022-08-25T12:00:57;99571.06;;;31.10;77.69
9853;BME280;4965;43.238;27.864;2022-08-25T12:03:48;99539.44;;;30.99;83.78
9853;BME280;4965;43.238;27.864;2022-08-25T12:06:28;99557.91;;;31.17;82.08
9853;BME280;4965;43.238;27.864;2022-08-25T12:09:19;99558.50;;;30.94;85.91
9853;BME280;4965;43.238;27.864;2022-08-25T12:11:49;99541.84;;;31.11;89.05
9853;BME280;4965;43.238;27.864;2022-08-25T12:14:40;99557.06;;;31.22;89.82
9853;BME280;4965;43.238;27.864;2022-08-25T12:17:23;99555.16;;;31.28;83.41
9853;BME280;4965;43.238;27.864;2022-08-25T12:19:57;99550.88;;;30.96;81.98
9853;BME280;4965;43.238;27.864;2022-08-25T12:22:42;99572.25;;;30.64;86.38
9853;BME280;4965;43.238;27.864;2022-08-25T12:28:31;99570.59;;;30.68;90.27
9853;BME280;4965;43.238;27.864;2022-08-25T12:31:08;99541.19;;;30.50;94.43
9853;BME280;4965;43.238;27.864;2022-08-25T12:33:48;99542.81;;;30.51;96.77
9853;BME280;4965;43.238;27.864;2022-08-25T12:36:27;99528.28;;;30.70;97.98
9853;BME280;4965;43.238;27.864;2022-08-25T12:39:08;99526.06;;;30.83;99.64
9853;BME280;4965;43.238;27.864;2022-08-25T12:41:53;99523.06;;;30.89;98.81
9853;BME280;4965;43.238;27.864;2022-08-25T12:44:34;99533.91;;;31.14;96.18
9853;BME280;4965;43.238;27.864;2022-08-25T12:47:12;99539.88;;;31.16;96.92
9853;BME280;4965;43.238;27.864;2022-08-25T12:49:40;99562.97;;;30.55;99.85
9853;BME280;4965;43.238;27.864;2022-08-25T12:52:11;99545.81;;;30.44;98.23
9853;BME280;4965;43.238;27.864;2022-08-25T12:54:47;99556.19;;;30.52;97.73
9853;BME280;4965;43.238;27.864;2022-08-25T12:57:32;99561.63;;;30.17;96.19
9853;BME280;4965;43.238;27.864;2022-08-25T13:00:09;99549.34;;;30.55;93.88
9853;BME280;4965;43.238;27.864;2022-08-25T13:09:37;99536.75;;;30.74;90.01
9853;BME280;4965;43.238;27.864;2022-08-25T13:12:15;99526.44;;;30.41;89.85
9853;BME280;4965;43.238;27.864;2022-08-25T13:14:44;99542.50;;;30.62;86.59
9853;BME280;4965;43.238;27.864;2022-08-25T13:17:23;99535.44;;;30.61;84.97
9853;BME280;4965;43.238;27.864;2022-08-25T13:19:51;99538.72;;;30.48;88.21
9853;BME280;4965;43.238;27.864;2022-08-25T13:22:19;99534.06;;;30.59;89.97
9853;BME280;4965;43.238;27.864;2022-08-25T13:24:46;99516.84;;;30.63;89.73
9853;BME280;4965;43.238;27.864;2022-08-25T13:27:20;99527.81;;;30.53;89.42
9853;BME280;4965;43.238;27.864;2022-08-25T13:29:52;99515.81;;;30.29;97.01
9853;BME280;4965;43.238;27.864;2022-08-25T13:32:25;99523.44;;;30.42;97.86
9853;BME280;4965;43.238;27.864;2022-08-25T13:35:06;99546.09;;;30.58;95.92
9853;BME280;4965;43.238;27.864;2022-08-25T13:37:36;99501.38;;;30.13;98.49
9853;BME280;4965;43.238;27.864;2022-08-25T13:40:08;99520.47;;;30.18;92.82
9853;BME280;4965;43.238;27.864;2022-08-25T13:42:35;99540.63;;;30.02;91.40
9853;BME280;4965;43.238;27.864;2022-08-25T13:45:06;99554.28;;;30.07;93.08
9853;BME280;4965;43.238;27.864;2022-08-25T13:47:36;99538.19;;;30.11;93.69
9853;BME280;4965;43.238;27.864;2022-08-25T13:50:19;99547.47;;;30.10;94.10
9853;BME280;4965;43.238;27.864;2022-08-25T13:52:48;99542.56;;;29.92;95.17
9853;BME280;4965;43.238;27.864;2022-08-25T13:55:20;99533.53;;;29.86;95.76
9853;BME280;4965;43.238;27.864;2022-08-25T13:57:48;99546.63;;;29.94;94.21
9853;BME280;4965;43.238;27.864;2022-08-25T14:00:28;99534.09;;;29.88;96.51
9853;BME280;4965;43.238;27.864;2022-08-25T14:02:58;99539.00;;;29.86;99.09
9853;BME280;4965;43.238;27.864;2022-08-25T14:05:33;99532.72;;;29.86;99.40